CFG4MG LEPA-EDDL
Flight info
| Callsign | CFG4MG |
|---|---|
| Flight time | N/A |
| Altitude | FL360 |
| Route | MERO9B MEROS N853 LUMAS MAXIR LUSOL BODRU OKTET IRMAR KINES VANAS MOBLO UBIMA GILIR PENDU IXILU EPL ROUSY DIK N853 ARCKY T853 NVO T857 BIKMU BIKM1A |
| Aircraft | A321/M-SDE3FGHIRWY/LB1 |
Departure
| Time | 2026-05-01 11:14 |
|---|---|
| Airport | Palma de Mallorca Airport (LEPA) |
Arrival
| Time | N/A |
|---|---|
| Airport | Düsseldorf Airport (EDDL) |
| Time | Latitude | Longitude | Altitude | Speed | Heading |
|---|---|---|---|---|---|
| 2026-05-01 10:54 | 39.55049 | 2.73540 | 30 ft | 0 kts | 163° |
| 2026-05-01 11:06 | 39.55067 | 2.73533 | 30 ft | 4 kts | 163° |
| 2026-05-01 11:06 | 39.55086 | 2.73526 | 30 ft | 4 kts | 139° |
| 2026-05-01 11:06 | 39.55092 | 2.73507 | 30 ft | 4 kts | 65° |
| 2026-05-01 11:07 | 39.55077 | 2.73474 | 30 ft | 0 kts | 59° |
| 2026-05-01 11:08 | 39.55077 | 2.73475 | 30 ft | 1 kts | 58° |
| 2026-05-01 11:09 | 39.55094 | 2.73510 | 30 ft | 7 kts | 58° |
| 2026-05-01 11:09 | 39.55119 | 2.73564 | 30 ft | 7 kts | 58° |
| 2026-05-01 11:09 | 39.55158 | 2.73647 | 30 ft | 17 kts | 58° |
| 2026-05-01 11:10 | 39.55104 | 2.73799 | 30 ft | 18 kts | 148° |
| 2026-05-01 11:10 | 39.54997 | 2.73884 | 30 ft | 18 kts | 149° |
| 2026-05-01 11:10 | 39.54894 | 2.73966 | 30 ft | 17 kts | 148° |
| 2026-05-01 11:10 | 39.54806 | 2.73970 | 30 ft | 13 kts | 225° |
| 2026-05-01 11:11 | 39.54738 | 2.73956 | 30 ft | 10 kts | 173° |
| 2026-05-01 11:11 | 39.54687 | 2.73906 | 30 ft | 13 kts | 237° |
| 2026-05-01 11:11 | 39.54626 | 2.73782 | 30 ft | 18 kts | 241° |
| 2026-05-01 11:11 | 39.54578 | 2.73679 | 30 ft | 10 kts | 223° |
| 2026-05-01 11:12 | 39.54521 | 2.73698 | 30 ft | 8 kts | 150° |
| 2026-05-01 11:12 | 39.54473 | 2.73734 | 30 ft | 8 kts | 149° |
| 2026-05-01 11:12 | 39.54430 | 2.73769 | 30 ft | 7 kts | 141° |
| 2026-05-01 11:12 | 39.54432 | 2.73816 | 30 ft | 5 kts | 67° |
| 2026-05-01 11:13 | 39.54437 | 2.73828 | 30 ft | 1 kts | 59° |
| 2026-05-01 11:13 | 39.54515 | 2.73994 | 30 ft | 56 kts | 59° |
| 2026-05-01 11:13 | 39.54839 | 2.74677 | 30 ft | 119 kts | 58° |
| 2026-05-01 11:13 | 39.55355 | 2.75773 | 67 ft | 161 kts | 58° |
| 2026-05-01 11:14 | 39.55922 | 2.76991 | 766 ft | 154 kts | 60° |
| 2026-05-01 11:14 | 39.56454 | 2.78181 | 1500 ft | 155 kts | 60° |
| 2026-05-01 11:14 | 39.57017 | 2.79452 | 1816 ft | 171 kts | 61° |
| 2026-05-01 11:14 | 39.57641 | 2.80858 | 2126 ft | 189 kts | 60° |
| 2026-05-01 11:15 | 39.58331 | 2.82377 | 2482 ft | 202 kts | 60° |
| 2026-05-01 11:15 | 39.59061 | 2.83976 | 2881 ft | 211 kts | 59° |
| 2026-05-01 11:15 | 39.59825 | 2.85617 | 3358 ft | 215 kts | 59° |
| 2026-05-01 11:15 | 39.60597 | 2.87288 | 3824 ft | 219 kts | 59° |
| 2026-05-01 11:16 | 39.61387 | 2.88996 | 4271 ft | 225 kts | 59° |
| 2026-05-01 11:16 | 39.62198 | 2.90731 | 4929 ft | 224 kts | 59° |
| 2026-05-01 11:16 | 39.63003 | 2.92477 | 5417 ft | 234 kts | 60° |
| 2026-05-01 11:16 | 39.63846 | 2.94395 | 5756 ft | 252 kts | 62° |
| 2026-05-01 11:17 | 39.64703 | 2.96427 | 6368 ft | 263 kts | 62° |
| 2026-05-01 11:17 | 39.65595 | 2.98552 | 6896 ft | 275 kts | 62° |
| 2026-05-01 11:17 | 39.66527 | 3.00756 | 7526 ft | 282 kts | 61° |
| 2026-05-01 11:17 | 39.67493 | 3.02995 | 8191 ft | 288 kts | 61° |